This is the latest recevied weather packets stored in our database for station/object VK3ABC-13. If no packets are shown the sender has not sent any weather packets the latest 10 day(s).
| Time | Temp. | Humidity | Pressure | Rain* | Wind** | Luminosity | Snow |
|---|---|---|---|---|---|---|---|
| 1777886109 | 15° C | 77% | 1007.7 hPa | 0 mm | - | 0 W/m² | - |
| 1777883109 | 15.56° C | 70% | 1007 hPa | 0 mm | - | 0 W/m² | - |
| 1777879509 | 16.67° C | 66% | 1006.3 hPa | 0 mm | - | 5 W/m² | - |
| 1777878909 | 16.67° C | 64% | 1006.2 hPa | 0 mm | - | 9 W/m² | - |
| 1777871710 | 19.44° C | 54% | 1005.7 hPa | 0 mm | - | 295 W/m² | - |
| 1777868710 | 20° C | 52% | 1005.7 hPa | 0 mm | - | 397 W/m² | - |
| 1777868410 | 20° C | 53% | 1005.8 hPa | 0 mm | - | 406 W/m² | - |
| 1777867811 | 20° C | 52% | 1005.8 hPa | 0 mm | - | 432 W/m² | - |
| 1777864810 | 20° C | 54% | 1006.4 hPa | 0 mm | - | 543 W/m² | - |
| 1777863611 | 20° C | 54% | 1006.8 hPa | 0 mm | - | 524 W/m² | - |
| 1777858211 | 19.44° C | 61% | 1007.8 hPa | 0 mm | - | 524 W/m² | - |
| 1777857909 | 18.89° C | 60% | 1007.9 hPa | 0 mm | - | 534 W/m² | - |
| 1777856411 | 18.33° C | 61% | 1008 hPa | 0 mm | - | 487 W/m² | - |
| 1777855509 | 18.33° C | 62% | 1008.1 hPa | 0 mm | - | 466 W/m² | - |
| 1777854910 | 18.33° C | 63% | 1007.9 hPa | 0 mm | - | 446 W/m² | - |
| 1777854309 | 18.33° C | 63% | 1008.1 hPa | 0 mm | - | 431 W/m² | - |
| 1777853109 | 17.78° C | 64% | 1008 hPa | 0 mm | - | 388 W/m² | - |
| 1777852811 | 17.78° C | 65% | 1007.9 hPa | 0 mm | - | 378 W/m² | - |
| 1777851910 | 17.78° C | 64% | 1008.1 hPa | 0 mm | - | 350 W/m² | - |
| 1777850410 | 17.22° C | 66% | 1008.4 hPa | 0 mm | - | 295 W/m² | - |
| 1777849810 | 16.67° C | 66% | 1008.2 hPa | 0 mm | - | 274 W/m² | - |
| 1777849212 | 16.11° C | 67% | 1008.3 hPa | 0 mm | - | 251 W/m² | - |
| 1777848309 | 15.56° C | 69% | 1008.4 hPa | 0 mm | - | 209 W/m² | - |
| 1777845309 | 13.89° C | 75% | 1008.5 hPa | 0 mm | - | 26 W/m² | - |
| 1777843810 | 13.89° C | 77% | 1008.3 hPa | 0 mm | - | 16 W/m² | - |
* Rain latest hour (hover to see other rain measurements)
** Current wind speed in m/s (hover to see current wind gust speed)